Time;durP1;ratioP1;P1;durP2;ratioP2;P2;SDS_P1;SDS_P2;PMS_P1;PMS_P2;Temp;Humidity;BMP_temperature;BMP_pressure;BME280_temperature;BME280_humidity;BME280_pressure;Samples;Min_cycle;Max_cycle;Signal;HPM_P1;HPM_P2
2021/04/16 00:00:38;;;;;;;;;;;6.70;51.10;;;;;;4904700;29;19934;-80
2021/04/16 00:03:06;;;;;;;;;;;6.80;51.20;;;;;;4914743;29;19934;-80
2021/04/16 00:05:33;;;;;;;;;;;6.70;51.20;;;;;;4914193;29;20041;-80
2021/04/16 00:07:59;;;;;;;;;;;6.70;51.30;;;;;;4914243;29;19931;-79
2021/04/16 00:10:28;;;;;;;;;;;6.70;51.50;;;;;;4901696;29;19935;-79
2021/04/16 00:12:55;;;;;;;;;;;6.70;51.50;;;;;;4907440;29;19931;-79
2021/04/16 00:15:24;;;;;;;;;;;6.70;51.50;;;;;;4915537;29;19982;-80
2021/04/16 00:17:53;;;;;;;;;;;6.70;51.50;;;;;;4917204;29;20416;-79
2021/04/16 00:20:23;;;;;;;;;;;6.60;51.60;;;;;;4903243;29;19980;-79
2021/04/16 00:22:50;;;;;;;;;;;6.60;51.60;;;;;;4909390;29;20385;-79
2021/04/16 00:25:17;;;;;;;;;;;6.60;51.70;;;;;;4898444;29;19987;-80
2021/04/16 00:27:44;;;;;;;;;;;6.50;51.70;;;;;;4898694;29;19927;-81
2021/04/16 00:30:11;;;;;;;;;;;6.50;51.80;;;;;;4899431;29;19927;-80
2021/04/16 00:32:37;;;;;;;;;;;6.50;51.80;;;;;;4897191;29;19954;-81
2021/04/16 00:35:05;;;;;;;;;;;6.50;51.70;;;;;;4897208;29;19934;-80
2021/04/16 00:37:33;;;;;;;;;;;6.50;51.90;;;;;;4899110;29;19931;-81
2021/04/16 00:39:59;;;;;;;;;;;6.50;52.00;;;;;;4899419;29;20025;-80
2021/04/16 00:42:26;;;;;;;;;;;6.50;52.00;;;;;;4916985;29;20288;-81
2021/04/16 00:44:52;;;;;;;;;;;6.50;52.10;;;;;;4904821;29;19935;-80
2021/04/16 00:47:22;;;;;;;;;;;6.40;52.60;;;;;;4898994;29;19932;-80
2021/04/16 00:49:50;;;;;;;;;;;6.40;52.10;;;;;;4903194;29;19935;-80
2021/04/16 00:52:18;;;;;;;;;;;6.40;52.10;;;;;;4914702;29;19934;-80
2021/04/16 00:54:46;;;;;;;;;;;6.40;52.20;;;;;;4910247;29;19927;-81
2021/04/16 00:57:14;;;;;;;;;;;6.30;52.20;;;;;;4898928;29;19998;-81
2021/04/16 00:59:42;;;;;;;;;;;6.30;52.30;;;;;;4896481;29;19927;-80
2021/04/16 01:02:09;;;;;;;;;;;6.30;52.30;;;;;;4899790;29;19931;-80
2021/04/16 01:04:35;;;;;;;;;;;6.30;52.40;;;;;;4898976;29;19928;-79
2021/04/16 01:07:02;;;;;;;;;;;6.30;52.30;;;;;;4914889;29;20421;-79
2021/04/16 01:09:29;;;;;;;;;;;6.20;52.30;;;;;;4915116;29;19931;-78
2021/04/16 01:11:56;;;;;;;;;;;6.20;52.30;;;;;;4899796;29;19950;-79
2021/04/16 01:14:23;;;;;;;;;;;6.20;52.40;;;;;;4899002;29;19938;-78
2021/04/16 01:16:50;;;;;;;;;;;6.10;52.30;;;;;;4901231;29;20338;-79
2021/04/16 01:19:19;;;;;;;;;;;6.20;52.40;;;;;;4910872;29;19931;-80
2021/04/16 01:21:49;;;;;;;;;;;6.20;52.40;;;;;;4916763;29;20303;-79
2021/04/16 01:24:26;;;;;;;;;;;6.20;52.50;;;;;;4915083;29;19927;-80
2021/04/16 01:26:53;;;;;;;;;;;6.20;52.50;;;;;;4904101;29;20046;-80
2021/04/16 01:29:20;;;;;;;;;;;6.20;52.50;;;;;;4905095;29;19927;-81
2021/04/16 01:31:49;;;;;;;;;;;6.10;52.40;;;;;;4913056;29;19950;-81
2021/04/16 01:34:17;;;;;;;;;;;6.10;52.50;;;;;;4901120;29;19934;-80
2021/04/16 01:36:43;;;;;;;;;;;6.10;52.50;;;;;;4902740;29;19931;-79
2021/04/16 01:39:09;;;;;;;;;;;6.00;52.60;;;;;;4903741;29;19931;-78
2021/04/16 01:41:37;;;;;;;;;;;6.00;52.50;;;;;;4898811;29;20333;-79
2021/04/16 01:44:04;;;;;;;;;;;6.00;52.60;;;;;;4897829;29;19947;-79
2021/04/16 01:46:46;;;;;;;;;;;6.00;52.60;;;;;;4898653;29;19932;-80
2021/04/16 01:49:12;;;;;;;;;;;6.00;52.60;;;;;;4917032;29;19927;-78
2021/04/16 01:51:38;;;;;;;;;;;6.00;52.70;;;;;;4905135;29;20475;-80
2021/04/16 01:54:06;;;;;;;;;;;6.00;52.70;;;;;;4895441;29;19938;-81
2021/04/16 01:56:32;;;;;;;;;;;6.00;52.80;;;;;;4899015;29;19932;-79
2021/04/16 01:59:16;;;;;;;;;;;5.90;52.80;;;;;;4907169;29;19934;-81
2021/04/16 02:01:43;;;;;;;;;;;5.90;52.80;;;;;;4911087;29;19927;-80
2021/04/16 02:04:10;;;;;;;;;;;5.90;52.80;;;;;;4914787;29;20044;-79
2021/04/16 02:06:36;;;;;;;;;;;5.80;52.80;;;;;;4914013;29;19931;-79
2021/04/16 02:09:03;;;;;;;;;;;5.80;52.80;;;;;;4912136;29;19927;-79
2021/04/16 02:11:30;;;;;;;;;;;5.80;52.80;;;;;;4901986;29;20345;-79
2021/04/16 02:13:56;;;;;;;;;;;5.80;52.90;;;;;;4898233;29;19928;-80
2021/04/16 02:16:23;;;;;;;;;;;5.80;53.00;;;;;;4900644;29;19935;-80
2021/04/16 02:18:51;;;;;;;;;;;5.80;53.00;;;;;;4910566;29;19934;-81
2021/04/16 02:21:24;;;;;;;;;;;5.80;53.00;;;;;;4903244;29;19927;-82
2021/04/16 02:27:40;;;;;;;;;;;5.80;53.10;;;;;;4902269;29;20094;-81
2021/04/16 02:30:13;;;;;;;;;;;5.70;53.10;;;;;;4899241;29;19927;-82
2021/04/16 02:32:40;;;;;;;;;;;5.80;53.20;;;;;;4904880;29;19928;-80
2021/04/16 02:35:07;;;;;;;;;;;5.70;53.20;;;;;;4901573;29;20292;-80
2021/04/16 02:37:34;;;;;;;;;;;5.70;53.30;;;;;;4900664;29;19934;-81
2021/04/16 02:40:00;;;;;;;;;;;5.70;53.40;;;;;;4903015;29;19935;-81
2021/04/16 02:42:27;;;;;;;;;;;5.70;53.30;;;;;;4900446;29;20357;-81
2021/04/16 02:44:54;;;;;;;;;;;5.70;53.20;;;;;;4902277;29;19934;-80
2021/04/16 02:47:20;;;;;;;;;;;5.70;53.20;;;;;;4899154;29;20290;-79
2021/04/16 02:49:48;;;;;;;;;;;5.70;53.20;;;;;;4900127;29;19935;-80
2021/04/16 02:52:14;;;;;;;;;;;5.70;53.20;;;;;;4915832;29;19931;-80
2021/04/16 02:54:40;;;;;;;;;;;5.70;53.30;;;;;;4909050;29;19931;-80
2021/04/16 03:03:05;;;;;;;;;;;5.80;53.40;;;;;;4882141;29;19964;-81
2021/04/16 03:05:33;;;;;;;;;;;5.70;53.20;;;;;;4911007;29;19927;-81
2021/04/16 03:07:59;;;;;;;;;;;5.70;53.20;;;;;;4916521;29;19926;-79
2021/04/16 03:10:27;;;;;;;;;;;5.70;53.20;;;;;;4906930;29;19927;-79
2021/04/16 03:12:53;;;;;;;;;;;5.70;53.20;;;;;;4898951;29;19931;-79
2021/04/16 03:15:20;;;;;;;;;;;5.70;53.20;;;;;;4902030;29;19946;-79
2021/04/16 03:17:46;;;;;;;;;;;5.60;53.20;;;;;;4918325;29;19928;-80
2021/04/16 03:20:13;;;;;;;;;;;5.60;53.20;;;;;;4907331;29;20010;-78
2021/04/16 03:22:40;;;;;;;;;;;5.60;53.30;;;;;;4902481;29;19931;-79
2021/04/16 03:25:09;;;;;;;;;;;5.60;53.30;;;;;;4911493;29;19935;-79
2021/04/16 03:27:50;;;;;;;;;;;5.60;53.30;;;;;;4899051;29;19928;-82
2021/04/16 03:30:18;;;;;;;;;;;5.50;53.30;;;;;;4906348;29;19935;-79
2021/04/16 03:32:44;;;;;;;;;;;5.50;53.50;;;;;;4908982;29;19931;-79
2021/04/16 03:35:11;;;;;;;;;;;5.50;53.60;;;;;;4910699;29;19935;-80
2021/04/16 03:37:38;;;;;;;;;;;5.40;53.60;;;;;;4899549;29;19933;-80
2021/04/16 03:40:06;;;;;;;;;;;5.40;53.60;;;;;;4899938;29;19959;-80
2021/04/16 03:45:38;;;;;;;;;;;5.40;53.80;;;;;;4901841;29;20011;-78
2021/04/16 03:48:07;;;;;;;;;;;5.40;53.90;;;;;;4902611;29;20377;-81
2021/04/16 03:50:36;;;;;;;;;;;5.30;53.70;;;;;;4901209;29;19974;-80
2021/04/16 03:53:03;;;;;;;;;;;5.40;53.70;;;;;;4900253;29;19928;-79
2021/04/16 03:55:32;;;;;;;;;;;5.30;53.70;;;;;;4903169;29;20289;-80
2021/04/16 03:57:59;;;;;;;;;;;5.30;53.90;;;;;;4899461;29;19927;-78
2021/04/16 04:00:29;;;;;;;;;;;5.30;54.00;;;;;;4905425;29;19935;-80
2021/04/16 04:02:55;;;;;;;;;;;5.30;54.00;;;;;;4917461;29;19927;-78
2021/04/16 04:05:22;;;;;;;;;;;5.30;54.20;;;;;;4903434;29;20296;-80
2021/04/16 04:07:48;;;;;;;;;;;5.30;54.20;;;;;;4901824;29;19927;-78
2021/04/16 04:10:17;;;;;;;;;;;5.30;54.10;;;;;;4913659;29;19927;-79
2021/04/16 04:12:44;;;;;;;;;;;5.30;54.20;;;;;;4905976;29;19927;-79
2021/04/16 04:15:11;;;;;;;;;;;5.20;54.10;;;;;;4904087;29;19927;-80
2021/04/16 04:17:38;;;;;;;;;;;5.30;54.30;;;;;;4898866;29;19934;-80
2021/04/16 04:20:05;;;;;;;;;;;5.30;54.30;;;;;;4912510;29;20296;-79
2021/04/16 04:22:31;;;;;;;;;;;5.20;54.20;;;;;;4907965;29;19938;-80
2021/04/16 04:24:57;;;;;;;;;;;5.20;54.20;;;;;;4912718;29;20400;-78
2021/04/16 04:27:24;;;;;;;;;;;5.20;54.40;;;;;;4915441;29;19979;-78
2021/04/16 04:29:51;;;;;;;;;;;5.20;54.50;;;;;;4910923;29;19931;-79
2021/04/16 04:32:17;;;;;;;;;;;5.10;54.40;;;;;;4899585;29;20352;-81
2021/04/16 04:34:48;;;;;;;;;;;5.10;54.50;;;;;;4903584;29;19927;-82
2021/04/16 04:37:22;;;;;;;;;;;5.10;54.60;;;;;;4899538;29;19934;-82
2021/04/16 04:39:52;;;;;;;;;;;5.10;54.70;;;;;;4898668;29;19927;-82
2021/04/16 04:42:19;;;;;;;;;;;5.10;54.70;;;;;;4894970;29;19934;-81
2021/04/16 04:44:45;;;;;;;;;;;5.10;54.70;;;;;;4900767;29;19927;-85
2021/04/16 04:47:13;;;;;;;;;;;5.20;54.80;;;;;;4902788;29;19935;-83
2021/04/16 04:49:43;;;;;;;;;;;5.10;54.80;;;;;;4905579;29;19933;-82
2021/04/16 04:52:23;;;;;;;;;;;5.20;54.90;;;;;;4909799;29;20384;-83
2021/04/16 05:16:08;;;;;;;;;;;5.30;55.00;;;;;;4902523;29;20296;-78
2021/04/16 05:19:07;;;;;;;;;;;5.30;54.70;;;;;;4911110;29;19934;-87
2021/04/16 08:17:40;;;;;;;;;;;9.90;50.70;;;;;;5722476;23;19978;-77
2021/04/16 08:20:21;;;;;;;;;;;10.00;49.10;;;;;;4936325;29;20017;-77
2021/04/16 08:22:48;;;;;;;;;;;10.00;48.80;;;;;;4936041;29;19927;-75
2021/04/16 08:25:17;;;;;;;;;;;9.90;49.80;;;;;;4936431;29;19954;-75
2021/04/16 08:27:44;;;;;;;;;;;9.90;49.60;;;;;;4936061;29;19926;-77
2021/04/16 08:30:15;;;;;;;;;;;9.80;49.50;;;;;;4934584;29;19930;-76
2021/04/16 08:32:46;;;;;;;;;;;9.80;49.60;;;;;;4936258;29;19938;-76
2021/04/16 08:35:15;;;;;;;;;;;9.80;49.70;;;;;;4936165;29;19926;-76
2021/04/16 08:37:43;;;;;;;;;;;9.80;49.90;;;;;;4936212;29;19931;-75
2021/04/16 08:40:11;;;;;;;;;;;9.90;49.90;;;;;;4936368;29;20388;-76
2021/04/16 08:42:38;;;;;;;;;;;10.00;48.90;;;;;;4935976;29;20281;-75
2021/04/16 08:45:08;;;;;;;;;;;10.10;48.90;;;;;;4936000;29;20296;-75
2021/04/16 08:47:36;;;;;;;;;;;10.10;48.50;;;;;;4935753;29;20017;-75
2021/04/16 08:50:04;;;;;;;;;;;10.10;48.40;;;;;;4935823;29;19931;-75
2021/04/16 08:52:32;;;;;;;;;;;10.10;48.80;;;;;;4935613;29;19935;-76
2021/04/16 08:55:08;;;;;;;;;;;10.00;48.90;;;;;;4935641;29;19934;-76
2021/04/16 08:57:40;;;;;;;;;;;10.10;49.00;;;;;;4934221;29;20368;-77
2021/04/16 09:00:08;;;;;;;;;;;10.10;48.60;;;;;;4935636;29;19926;-78
2021/04/16 09:02:38;;;;;;;;;;;10.30;49.00;;;;;;4935690;29;19934;-77
2021/04/16 09:05:15;;;;;;;;;;;10.40;48.70;;;;;;4935532;29;19927;-77
2021/04/16 09:07:42;;;;;;;;;;;10.50;48.90;;;;;;4952900;29;19962;-77
2021/04/16 09:10:37;;;;;;;;;;;10.90;48.90;;;;;;4955264;29;20292;-77
2021/04/16 09:13:04;;;;;;;;;;;11.10;47.90;;;;;;4947519;29;19933;-77
2021/04/16 09:15:45;;;;;;;;;;;11.10;47.00;;;;;;4935276;29;19926;-77
2021/04/16 09:18:12;;;;;;;;;;;11.00;46.70;;;;;;4932830;29;19934;-77
2021/04/16 09:20:59;;;;;;;;;;;11.00;46.80;;;;;;4935662;29;19934;-79
2021/04/16 09:23:46;;;;;;;;;;;11.10;46.90;;;;;;4940166;29;19926;-83
2021/04/16 09:26:37;;;;;;;;;;;11.40;46.30;;;;;;4938879;28;20287;-83
2021/04/16 09:29:09;;;;;;;;;;;11.50;45.30;;;;;;4950630;28;20454;-82
2021/04/16 09:31:55;;;;;;;;;;;11.70;45.00;;;;;;4948137;28;19934;-80
2021/04/16 09:34:23;;;;;;;;;;;11.80;44.70;;;;;;4939081;29;19938;-80
2021/04/16 09:36:55;;;;;;;;;;;11.90;44.50;;;;;;4938722;29;19927;-81
2021/04/16 09:39:35;;;;;;;;;;;11.90;44.40;;;;;;4920144;29;19931;-81
2021/04/16 09:42:33;;;;;;;;;;;11.90;44.60;;;;;;4935695;29;19973;-82
2021/04/16 09:45:13;;;;;;;;;;;11.90;44.50;;;;;;4945647;29;20069;-82
2021/04/16 09:47:59;;;;;;;;;;;12.00;44.20;;;;;;4939586;29;19927;-81
2021/04/16 09:50:50;;;;;;;;;;;12.00;43.70;;;;;;4927741;29;19927;-81
2021/04/16 09:53:24;;;;;;;;;;;12.00;43.80;;;;;;4937929;29;19965;-81
2021/04/16 09:56:09;;;;;;;;;;;12.10;43.50;;;;;;4919749;29;20215;-81
2021/04/16 09:59:01;;;;;;;;;;;12.10;43.30;;;;;;4919798;29;19934;-82
2021/04/16 10:05:02;;;;;;;;;;;12.20;43.20;;;;;;4912857;29;20464;-82
2021/04/16 10:07:39;;;;;;;;;;;12.20;42.90;;;;;;4949598;29;19926;-81
2021/04/16 10:10:24;;;;;;;;;;;12.30;43.00;;;;;;4957822;29;19945;-82
2021/04/16 10:13:07;;;;;;;;;;;12.30;42.70;;;;;;4930103;29;20316;-81
2021/04/16 10:15:42;;;;;;;;;;;12.30;42.20;;;;;;4938097;29;20014;-81
2021/04/16 10:18:38;;;;;;;;;;;12.50;42.50;;;;;;4935769;29;20299;-82
2021/04/16 10:21:31;;;;;;;;;;;12.80;42.30;;;;;;4909947;29;19930;-82
2021/04/16 12:38:07;;;;;;;;;;;11.10;44.00;;;;;;4935839;29;20487;-78
2021/04/16 12:40:35;;;;;;;;;;;11.10;43.90;;;;;;4935253;29;23161;-78
2021/04/16 12:43:03;;;;;;;;;;;11.20;43.80;;;;;;4935853;29;20400;-78
2021/04/16 12:45:30;;;;;;;;;;;11.20;43.70;;;;;;4935654;29;19934;-79
2021/04/16 12:51:03;;;;;;;;;;;11.20;43.60;;;;;;4934407;29;19946;-80
2021/04/16 12:53:29;;;;;;;;;;;11.30;43.40;;;;;;4934572;29;20395;-79
2021/04/16 12:56:01;;;;;;;;;;;11.30;43.50;;;;;;4935690;29;19938;-80
2021/04/16 12:58:30;;;;;;;;;;;11.40;43.30;;;;;;4930091;29;19931;-79
2021/04/16 13:00:57;;;;;;;;;;;11.40;43.20;;;;;;4935387;29;20383;-79
2021/04/16 13:03:29;;;;;;;;;;;11.60;43.50;;;;;;4935274;29;19933;-79
2021/04/16 13:05:56;;;;;;;;;;;11.80;43.20;;;;;;4938368;29;19982;-79
2021/04/16 13:08:31;;;;;;;;;;;12.00;42.90;;;;;;4947526;29;19927;-81
2021/04/16 13:11:01;;;;;;;;;;;12.30;42.90;;;;;;4935536;29;20049;-82
2021/04/16 13:36:26;;;;;;;;;;;12.30;42.10;;;;;;4934572;29;19945;-84
2021/04/16 13:39:09;;;;;;;;;;;12.40;42.20;;;;;;4914434;29;19962;-82
2021/04/16 13:41:37;;;;;;;;;;;12.40;41.70;;;;;;4933491;29;20307;-82
2021/04/16 13:44:07;;;;;;;;;;;12.40;41.20;;;;;;4934887;29;20410;-82
2021/04/16 13:46:39;;;;;;;;;;;12.40;41.20;;;;;;4934798;29;19938;-81
2021/04/16 13:49:06;;;;;;;;;;;12.50;40.90;;;;;;4935008;29;19974;-82
2021/04/16 13:51:46;;;;;;;;;;;12.50;41.00;;;;;;4933310;29;19958;-84
2021/04/16 13:54:26;;;;;;;;;;;12.60;41.30;;;;;;4934861;29;19981;-83
2021/04/16 14:30:30;;;;;;;;;;;12.10;40.10;;;;;;4948945;29;19977;-84
2021/04/16 14:35:50;;;;;;;;;;;11.90;40.00;;;;;;4933893;29;19949;-80
2021/04/16 14:38:16;;;;;;;;;;;11.70;40.10;;;;;;4963818;28;19930;-80
2021/04/16 14:40:42;;;;;;;;;;;11.60;40.30;;;;;;4967056;28;20438;-79
2021/04/16 14:43:09;;;;;;;;;;;11.60;40.50;;;;;;4953263;28;19934;-78
2021/04/16 14:45:37;;;;;;;;;;;11.60;40.70;;;;;;4946435;28;20357;-78
2021/04/16 14:48:04;;;;;;;;;;;11.60;40.60;;;;;;4946139;28;19934;-78
2021/04/16 14:50:30;;;;;;;;;;;11.60;40.40;;;;;;4957514;28;20284;-78
2021/04/16 14:52:59;;;;;;;;;;;11.60;40.30;;;;;;4959478;28;20045;-78
2021/04/16 14:55:27;;;;;;;;;;;11.70;40.50;;;;;;4970032;28;19930;-79
2021/04/16 14:57:55;;;;;;;;;;;11.80;40.30;;;;;;4957245;28;19934;-79
2021/04/16 15:00:22;;;;;;;;;;;11.80;40.10;;;;;;4956098;28;19926;-79
2021/04/16 15:02:53;;;;;;;;;;;11.80;40.10;;;;;;4957206;28;20284;-79
2021/04/16 15:05:20;;;;;;;;;;;11.70;40.30;;;;;;4954682;28;20395;-79
2021/04/16 15:07:50;;;;;;;;;;;11.70;40.60;;;;;;4959532;28;19930;-79
2021/04/16 15:10:18;;;;;;;;;;;11.80;40.60;;;;;;4955376;28;19926;-79
2021/04/16 15:12:44;;;;;;;;;;;11.70;40.30;;;;;;4949355;28;20299;-79
2021/04/16 15:15:14;;;;;;;;;;;11.70;40.20;;;;;;4956407;28;19930;-79
2021/04/16 15:17:41;;;;;;;;;;;11.70;40.40;;;;;;4938801;29;19959;-81
2021/04/16 15:20:09;;;;;;;;;;;11.80;40.90;;;;;;4937791;29;19982;-79
2021/04/16 15:22:36;;;;;;;;;;;11.70;40.20;;;;;;4954352;28;19937;-79
2021/04/16 15:25:02;;;;;;;;;;;11.70;40.30;;;;;;4943800;28;19927;-79
2021/04/16 15:27:32;;;;;;;;;;;11.70;40.60;;;;;;4937714;29;19930;-79
2021/04/16 15:29:59;;;;;;;;;;;11.60;40.70;;;;;;4953598;28;19926;-79
2021/04/16 15:32:27;;;;;;;;;;;11.60;40.80;;;;;;4964564;28;20312;-78
2021/04/16 15:48:14;;;;;;;;;;;11.30;41.60;;;;;;4945109;29;19927;-78
2021/04/16 15:50:42;;;;;;;;;;;11.20;41.80;;;;;;4951916;28;19927;-79
2021/04/16 15:53:11;;;;;;;;;;;11.20;42.20;;;;;;4957055;28;19927;-78
2021/04/16 15:55:37;;;;;;;;;;;11.10;42.60;;;;;;4953974;28;19933;-77
2021/04/16 15:58:04;;;;;;;;;;;11.10;42.90;;;;;;4955413;28;19930;-77
2021/04/16 16:00:38;;;;;;;;;;;11.10;43.10;;;;;;4940832;28;19927;-79
2021/04/16 16:03:08;;;;;;;;;;;11.10;43.10;;;;;;4936832;29;20459;-79
2021/04/16 16:05:37;;;;;;;;;;;11.00;43.00;;;;;;4935999;28;20284;-79
2021/04/16 16:08:04;;;;;;;;;;;11.00;43.80;;;;;;4975072;28;19958;-79
2021/04/16 16:10:32;;;;;;;;;;;11.00;43.50;;;;;;4975298;28;19926;-79
2021/04/16 16:13:00;;;;;;;;;;;11.00;43.70;;;;;;4968538;28;19933;-79
2021/04/16 16:15:30;;;;;;;;;;;10.90;44.00;;;;;;4955699;28;19930;-79
2021/04/16 16:17:59;;;;;;;;;;;10.80;44.40;;;;;;4956038;28;20335;-80
2021/04/16 16:20:28;;;;;;;;;;;10.80;44.90;;;;;;4955862;28;19931;-79
2021/04/16 16:22:57;;;;;;;;;;;10.70;45.20;;;;;;4956021;28;19926;-79
2021/04/16 16:25:23;;;;;;;;;;;10.70;45.40;;;;;;4955867;28;20320;-79
2021/04/16 16:27:51;;;;;;;;;;;10.70;45.60;;;;;;4955707;28;19973;-79
2021/04/16 16:30:20;;;;;;;;;;;10.70;45.90;;;;;;4953854;28;19927;-79
2021/04/16 16:32:47;;;;;;;;;;;10.70;46.10;;;;;;4955468;28;20406;-80
2021/04/16 16:35:14;;;;;;;;;;;10.60;45.90;;;;;;4955480;28;19927;-80
2021/04/16 16:37:41;;;;;;;;;;;10.60;46.20;;;;;;4955022;28;19930;-80
2021/04/16 16:40:08;;;;;;;;;;;10.60;46.40;;;;;;4955187;28;20311;-80
2021/04/16 16:42:38;;;;;;;;;;;10.50;46.30;;;;;;4955221;28;19926;-80
2021/04/16 16:45:07;;;;;;;;;;;10.50;46.40;;;;;;4955435;28;20403;-79
2021/04/16 16:47:34;;;;;;;;;;;10.60;46.50;;;;;;4955293;28;19926;-79
2021/04/16 16:50:04;;;;;;;;;;;10.50;46.50;;;;;;4955324;28;19926;-79
2021/04/16 16:52:31;;;;;;;;;;;10.50;46.60;;;;;;4954748;28;20406;-79
2021/04/16 16:55:00;;;;;;;;;;;10.50;46.80;;;;;;4951287;28;19933;-79
2021/04/16 16:57:27;;;;;;;;;;;10.40;47.00;;;;;;4952926;28;19938;-80
2021/04/16 16:59:54;;;;;;;;;;;10.40;47.10;;;;;;4937876;28;19949;-80
2021/04/16 17:02:24;;;;;;;;;;;10.40;47.10;;;;;;4949851;28;19927;-80
2021/04/16 17:04:50;;;;;;;;;;;10.40;47.10;;;;;;4951321;28;19926;-80
2021/04/16 17:07:17;;;;;;;;;;;10.40;47.20;;;;;;4950795;28;19930;-81
2021/04/16 17:09:44;;;;;;;;;;;10.40;47.30;;;;;;4942873;28;19927;-81
2021/04/16 17:12:13;;;;;;;;;;;10.40;47.40;;;;;;4940264;28;19932;-79
2021/04/16 17:14:41;;;;;;;;;;;10.30;47.30;;;;;;4945785;28;19927;-80
2021/04/16 17:17:08;;;;;;;;;;;10.30;47.40;;;;;;4944250;28;19950;-80
2021/04/16 17:19:38;;;;;;;;;;;10.30;47.50;;;;;;4946807;28;19927;-80
2021/04/16 17:22:08;;;;;;;;;;;10.30;47.60;;;;;;4946570;28;19977;-79
2021/04/16 17:24:34;;;;;;;;;;;10.40;47.70;;;;;;4965335;28;20332;-80
2021/04/16 17:27:02;;;;;;;;;;;10.40;47.50;;;;;;4964432;28;19934;-80
2021/04/16 17:29:33;;;;;;;;;;;10.30;47.60;;;;;;4950909;28;20056;-81
2021/04/16 17:31:59;;;;;;;;;;;10.20;47.60;;;;;;4941379;29;19935;-79
2021/04/16 17:34:26;;;;;;;;;;;10.20;47.70;;;;;;4949707;28;19933;-78
2021/04/16 17:36:59;;;;;;;;;;;10.20;47.90;;;;;;4946365;28;19933;-80
2021/04/16 17:39:25;;;;;;;;;;;10.20;47.90;;;;;;4935178;29;19969;-80
2021/04/16 17:41:53;;;;;;;;;;;10.20;48.00;;;;;;4952432;28;20376;-80
2021/04/16 17:44:21;;;;;;;;;;;10.20;48.00;;;;;;4947594;28;19966;-80
2021/04/16 17:46:52;;;;;;;;;;;10.20;48.00;;;;;;4951457;28;19927;-80
2021/04/16 17:49:19;;;;;;;;;;;10.20;47.80;;;;;;4951220;28;20630;-79
2021/04/16 17:51:46;;;;;;;;;;;10.10;47.70;;;;;;4957645;28;19934;-80
2021/04/16 17:54:14;;;;;;;;;;;10.10;47.60;;;;;;4955996;28;19930;-79
2021/04/16 17:56:40;;;;;;;;;;;10.00;47.80;;;;;;4951854;28;19927;-79
2021/04/16 17:59:07;;;;;;;;;;;10.10;47.90;;;;;;4966826;28;19933;-77
2021/04/16 18:01:35;;;;;;;;;;;10.10;48.00;;;;;;4956057;28;19931;-79
2021/04/16 18:04:01;;;;;;;;;;;10.10;48.00;;;;;;4948950;28;19934;-79
2021/04/16 18:06:30;;;;;;;;;;;10.20;48.10;;;;;;4957599;28;19953;-79
2021/04/16 18:08:57;;;;;;;;;;;10.20;48.00;;;;;;4948655;28;19931;-82
2021/04/16 18:11:25;;;;;;;;;;;10.20;47.80;;;;;;4943312;29;19942;-79
2021/04/16 18:13:51;;;;;;;;;;;10.20;47.70;;;;;;4945526;28;19926;-77
2021/04/16 18:16:20;;;;;;;;;;;10.10;47.80;;;;;;4953986;28;19926;-80
2021/04/16 18:18:47;;;;;;;;;;;10.10;47.80;;;;;;4954115;28;19930;-80
2021/04/16 18:21:16;;;;;;;;;;;10.10;47.90;;;;;;4957600;28;19933;-77
2021/04/16 18:23:46;;;;;;;;;;;10.20;47.90;;;;;;4956160;28;20707;-79
2021/04/16 18:26:13;;;;;;;;;;;10.20;47.90;;;;;;4946716;28;19934;-79
2021/04/16 18:28:42;;;;;;;;;;;10.20;47.80;;;;;;4941138;28;19927;-78
2021/04/16 18:31:08;;;;;;;;;;;10.20;47.80;;;;;;4939311;29;19933;-77
2021/04/16 18:33:34;;;;;;;;;;;10.20;47.80;;;;;;4951019;28;19982;-78
2021/04/16 18:36:01;;;;;;;;;;;10.20;47.90;;;;;;4939954;28;19934;-77
2021/04/16 18:38:28;;;;;;;;;;;10.20;48.00;;;;;;4951688;28;19930;-79
2021/04/16 18:41:23;;;;;;;;;;;10.20;48.00;;;;;;4955065;28;20447;-83
2021/04/16 18:43:52;;;;;;;;;;;10.20;48.00;;;;;;4951658;28;20051;-79
2021/04/16 18:46:20;;;;;;;;;;;10.20;48.00;;;;;;4943393;28;19933;-80
2021/04/16 18:48:46;;;;;;;;;;;10.20;48.10;;;;;;4954029;28;19938;-79
2021/04/16 18:51:13;;;;;;;;;;;10.20;48.30;;;;;;4951284;28;20027;-78
2021/04/16 18:53:42;;;;;;;;;;;10.10;48.30;;;;;;4954009;28;19926;-77
2021/04/16 18:56:12;;;;;;;;;;;10.10;48.50;;;;;;4951680;28;19930;-80
2021/04/16 18:58:39;;;;;;;;;;;10.10;48.60;;;;;;4967021;28;20383;-79
2021/04/16 19:01:09;;;;;;;;;;;10.00;48.60;;;;;;4946749;28;20395;-80
2021/04/16 19:03:35;;;;;;;;;;;10.10;48.80;;;;;;4954516;28;19982;-80
2021/04/16 19:06:34;;;;;;;;;;;10.00;48.80;;;;;;4948288;28;20342;-82
2021/04/16 19:09:02;;;;;;;;;;;10.00;48.90;;;;;;4947152;28;19927;-80
2021/04/16 19:11:29;;;;;;;;;;;10.00;48.90;;;;;;4944433;28;19989;-78
2021/04/16 19:13:56;;;;;;;;;;;10.10;49.20;;;;;;4948262;28;19981;-80
2021/04/16 19:16:23;;;;;;;;;;;10.10;49.10;;;;;;4951403;28;19927;-81
2021/04/16 19:19:08;;;;;;;;;;;10.10;49.00;;;;;;4938599;28;19927;-82
2021/04/16 19:21:37;;;;;;;;;;;10.10;48.90;;;;;;4938000;29;20280;-79
2021/04/16 19:24:07;;;;;;;;;;;10.20;49.00;;;;;;4939297;28;19931;-80
2021/04/16 19:26:33;;;;;;;;;;;10.20;49.10;;;;;;4954706;28;19926;-81
2021/04/16 19:29:05;;;;;;;;;;;10.20;49.10;;;;;;4948493;28;19926;-81
2021/04/16 19:31:35;;;;;;;;;;;10.20;49.10;;;;;;4937255;29;20017;-80
2021/04/16 19:34:05;;;;;;;;;;;10.20;48.90;;;;;;4936992;29;19927;-81
2021/04/16 19:36:51;;;;;;;;;;;;;;;;;;;;;
2021/04/16 19:39:18;;;;;;;;;;;10.10;49.00;;;;;;4936454;29;19927;-80
2021/04/16 19:41:45;;;;;;;;;;;10.00;49.10;;;;;;4936921;29;19931;-79
2021/04/16 19:44:12;;;;;;;;;;;10.00;49.30;;;;;;4948411;28;20233;-81
2021/04/16 19:46:54;;;;;;;;;;;10.00;49.50;;;;;;4948683;28;20446;-82
2021/04/16 20:18:09;;;;;;;;;;;9.70;51.70;;;;;;4941887;29;19973;-80
2021/04/16 20:20:41;;;;;;;;;;;9.70;51.40;;;;;;4947869;28;19927;-80
2021/04/16 20:23:12;;;;;;;;;;;9.70;51.50;;;;;;4951243;28;20292;-80
2021/04/16 20:25:42;;;;;;;;;;;9.70;51.50;;;;;;4949941;28;20383;-80
2021/04/16 20:28:09;;;;;;;;;;;9.70;51.50;;;;;;4935992;29;19934;-80
2021/04/16 20:30:37;;;;;;;;;;;9.80;51.60;;;;;;4934951;29;19926;-79
2021/04/16 20:33:04;;;;;;;;;;;9.70;51.50;;;;;;4935179;29;19931;-78
2021/04/16 20:35:32;;;;;;;;;;;9.70;51.50;;;;;;4935940;29;20295;-78
2021/04/16 20:38:00;;;;;;;;;;;9.70;51.60;;;;;;4935632;29;19938;-78
2021/04/16 20:40:30;;;;;;;;;;;9.70;51.70;;;;;;4951120;28;19930;-78
2021/04/16 20:42:57;;;;;;;;;;;9.70;51.80;;;;;;4957186;28;19934;-78
2021/04/16 20:45:24;;;;;;;;;;;9.60;51.70;;;;;;4955704;28;19926;-78
2021/04/16 20:47:50;;;;;;;;;;;9.70;51.80;;;;;;4954596;28;19926;-78
2021/04/16 20:50:17;;;;;;;;;;;9.70;51.80;;;;;;4953494;28;19927;-81
2021/04/16 20:52:53;;;;;;;;;;;9.70;51.90;;;;;;4950377;28;20256;-82
2021/04/16 20:55:23;;;;;;;;;;;9.60;51.90;;;;;;4952214;28;19934;-81
2021/04/16 20:57:54;;;;;;;;;;;9.60;52.00;;;;;;4952808;28;20566;-81
2021/04/16 21:00:22;;;;;;;;;;;9.60;52.00;;;;;;4937022;28;19996;-81
2021/04/16 21:03:22;;;;;;;;;;;9.60;52.10;;;;;;4938097;29;20272;-80
2021/04/16 21:05:51;;;;;;;;;;;9.60;52.10;;;;;;4954227;28;19934;-80
2021/04/16 21:08:26;;;;;;;;;;;9.60;52.10;;;;;;4970124;28;20058;-80
2021/04/16 21:10:59;;;;;;;;;;;9.60;52.20;;;;;;4952637;28;19930;-80
2021/04/16 21:13:30;;;;;;;;;;;9.60;52.20;;;;;;4950386;28;19930;-80
2021/04/16 21:15:58;;;;;;;;;;;9.60;52.20;;;;;;4943625;28;19934;-80
2021/04/16 21:18:27;;;;;;;;;;;9.60;52.30;;;;;;4935803;29;19982;-78
2021/04/16 21:20:54;;;;;;;;;;;9.60;52.20;;;;;;4940105;28;19927;-79
2021/04/16 21:23:27;;;;;;;;;;;9.70;52.40;;;;;;4935854;29;20285;-79
2021/04/16 21:25:53;;;;;;;;;;;9.60;52.20;;;;;;4949216;28;19934;-79
2021/04/16 21:28:32;;;;;;;;;;;9.70;52.30;;;;;;4953659;28;19975;-80
2021/04/16 21:30:58;;;;;;;;;;;9.70;52.40;;;;;;4939409;29;20384;-80
2021/04/16 21:33:29;;;;;;;;;;;9.70;52.30;;;;;;4935978;29;20344;-79
2021/04/16 21:35:56;;;;;;;;;;;9.70;52.40;;;;;;4951254;28;19930;-79
2021/04/16 21:38:24;;;;;;;;;;;9.60;52.50;;;;;;4952337;28;20295;-78
2021/04/16 21:40:52;;;;;;;;;;;9.60;52.60;;;;;;4951988;28;19933;-78
2021/04/16 21:43:20;;;;;;;;;;;9.60;52.70;;;;;;4940283;28;20371;-79
2021/04/16 21:45:52;;;;;;;;;;;9.60;52.70;;;;;;4938518;29;19938;-78
2021/04/16 21:48:24;;;;;;;;;;;9.60;52.70;;;;;;4962363;28;19926;-77
2021/04/16 21:50:55;;;;;;;;;;;9.60;52.60;;;;;;4940354;28;19927;-77
2021/04/16 21:53:23;;;;;;;;;;;9.60;52.50;;;;;;4953039;28;19933;-78
2021/04/16 21:55:49;;;;;;;;;;;9.60;52.50;;;;;;4941816;29;19938;-78
2021/04/16 21:58:16;;;;;;;;;;;9.70;52.60;;;;;;4949940;28;20396;-78
2021/04/16 22:00:44;;;;;;;;;;;9.70;52.60;;;;;;4938817;29;19978;-77
2021/04/16 22:03:13;;;;;;;;;;;9.60;52.60;;;;;;4953352;28;19935;-77
2021/04/16 22:05:41;;;;;;;;;;;9.60;52.60;;;;;;4941264;28;19982;-79
2021/04/16 22:08:25;;;;;;;;;;;9.60;53.20;;;;;;4971216;28;19977;-79
2021/04/16 22:10:54;;;;;;;;;;;9.70;52.60;;;;;;4935244;29;19926;-79